Time;durP1;ratioP1;P1;durP2;ratioP2;P2;SDS_P1;SDS_P2;PMS_P1;PMS_P2;Temp;Humidity;BMP_temperature;BMP_pressure;BME280_temperature;BME280_humidity;BME280_pressure;Samples;Min_cycle;Max_cycle;Signal;HPM_P1;HPM_P2
2023/09/15 00:00:24;;;;;;;7.93;4.60;;;;;;;;;;4930428;29;20096;-75
2023/09/15 00:02:56;;;;;;;8.23;4.53;;;;;;;;;;4945237;29;20071;-75
2023/09/15 00:05:33;;;;;;;11.68;4.00;;;;;;;;;;4931455;29;20039;-76
2023/09/15 00:08:04;;;;;;;8.85;4.75;;;;;;;;;;4931519;29;20120;-75
2023/09/15 00:10:39;;;;;;;11.45;4.65;;;;;;;;;;4946796;29;20032;-75
2023/09/15 00:13:05;;;;;;;9.95;4.32;;;;;;;;;;4933756;29;20035;-75
2023/09/15 00:15:38;;;;;;;9.27;4.00;;;;;;;;;;4917308;29;20028;-75
2023/09/15 00:18:06;;;;;;;7.85;4.65;;;;;;;;;;4934196;29;20032;-76
2023/09/15 00:20:35;;;;;;;;;;;;;;;;;;4950957;29;20032;-74
2023/09/15 00:23:40;;;;;;;10.13;4.03;;;;;;;;;;4936391;29;19922;-74
2023/09/15 00:26:48;;;;;;;8.15;4.43;;;;;;;;;;4949252;29;20028;-76
2023/09/15 00:29:49;;;;;;;10.30;4.20;;;;;;;;;;4921480;29;20044;-75
2023/09/15 00:35:31;;;;;;;8.80;4.20;;;;;;;;;;4936818;29;20099;-76
2023/09/15 00:38:14;;;;;;;11.52;4.65;;;;;;;;;;4934700;29;20044;-75
2023/09/15 00:40:54;;;;;;;10.20;4.28;;;;;;;;;;4922475;29;20091;-74
2023/09/15 00:43:40;;;;;;;12.70;4.28;;;;;;;;;;4920135;29;20064;-76
2023/09/15 00:46:36;;;;;;;10.60;4.15;;;;;;;;;;4928447;29;20071;-75
2023/09/15 00:49:31;;;;;;;7.18;3.65;;;;;;;;;;4946656;29;20039;-76
2023/09/15 00:52:13;;;;;;;8.73;4.38;;;;;;;;;;4945561;29;20103;-76
2023/09/15 00:54:59;;;;;;;8.68;4.68;;;;;;;;;;4941725;29;20103;-75
2023/09/15 00:58:03;;;;;;;11.80;3.88;;;;;;;;;;4971739;28;20568;-77
2023/09/15 01:00:41;;;;;;;10.25;4.57;;;;;;;;;;4954611;29;20039;-76
2023/09/15 01:03:22;;;;;;;9.55;4.03;;;;;;;;;;4965390;23;20074;-75
2023/09/15 01:05:48;;;;;;;7.07;3.88;;;;;;;;;;4924179;29;20039;-75
2023/09/15 01:08:14;;;;;;;9.32;4.55;;;;;;;;;;4956020;29;20035;-75
2023/09/15 01:10:44;;;;;;;6.97;3.80;;;;;;;;;;4940215;29;20047;-74
2023/09/15 01:13:21;;;;;;;8.05;4.07;;;;;;;;;;4935739;29;20027;-75
2023/09/15 01:16:09;;;;;;;7.60;3.90;;;;;;;;;;4938807;29;20028;-75
2023/09/15 01:19:10;;;;;;;11.53;3.93;;;;;;;;;;4954171;29;20028;-74
2023/09/15 01:21:47;;;;;;;8.90;3.90;;;;;;;;;;4906931;29;20047;-75
2023/09/15 01:24:53;;;;;;;7.70;3.80;;;;;;;;;;4970657;23;20058;-75
2023/09/15 01:27:34;;;;;;;8.68;3.95;;;;;;;;;;4976910;28;20058;-75
2023/09/15 01:30:04;;;;;;;8.88;4.05;;;;;;;;;;4976403;29;20139;-74
2023/09/15 01:32:37;;;;;;;9.90;3.53;;;;;;;;;;4973921;29;20034;-74
2023/09/15 01:35:14;;;;;;;5.32;3.30;;;;;;;;;;4972543;29;20026;-75
2023/09/15 01:37:40;;;;;;;7.75;3.85;;;;;;;;;;4974151;29;20031;-74
2023/09/15 01:40:07;;;;;;;8.63;3.88;;;;;;;;;;4961709;28;20027;-75
2023/09/15 01:42:33;;;;;;;10.75;3.75;;;;;;;;;;4957913;29;20376;-74
2023/09/15 01:45:06;;;;;;;9.82;3.83;;;;;;;;;;4974537;28;20027;-76
2023/09/15 01:47:34;;;;;;;8.45;3.53;;;;;;;;;;4974002;28;20111;-75
2023/09/15 01:50:05;;;;;;;8.45;3.58;;;;;;;;;;4970307;28;20031;-74
2023/09/15 01:52:34;;;;;;;7.63;3.60;;;;;;;;;;4965434;29;20070;-75
2023/09/15 01:55:08;;;;;;;6.75;3.83;;;;;;;;;;4951047;29;20031;-74
2023/09/15 01:57:39;;;;;;;8.35;3.63;;;;;;;;;;4949188;29;20027;-75
2023/09/15 02:00:07;;;;;;;10.27;4.00;;;;;;;;;;4965055;29;20032;-75
2023/09/15 02:02:40;;;;;;;7.72;3.63;;;;;;;;;;4968483;28;20031;-75
2023/09/15 02:05:14;;;;;;;8.75;3.50;;;;;;;;;;4956124;29;20043;-76
2023/09/15 02:07:48;;;;;;;6.68;3.55;;;;;;;;;;4974009;28;20059;-75
2023/09/15 02:10:17;;;;;;;9.75;3.92;;;;;;;;;;4954954;29;20031;-74
2023/09/15 02:12:45;;;;;;;8.10;3.60;;;;;;;;;;4948604;29;20104;-76
2023/09/15 02:15:15;;;;;;;11.90;3.97;;;;;;;;;;4973698;29;20028;-76
2023/09/15 02:17:43;;;;;;;9.02;3.60;;;;;;;;;;4975201;29;20030;-75
2023/09/15 02:20:12;;;;;;;6.68;3.95;;;;;;;;;;4959667;29;20054;-75
2023/09/15 02:22:42;;;;;;;7.30;3.58;;;;;;;;;;4975779;28;20058;-74
2023/09/15 02:25:14;;;;;;;7.53;3.65;;;;;;;;;;4958369;29;20047;-75
2023/09/15 02:27:41;;;;;;;13.80;5.38;;;;;;;;;;4958251;29;20031;-75
2023/09/15 02:30:07;;;;;;;7.25;3.45;;;;;;;;;;4957363;29;20071;-75
2023/09/15 02:32:36;;;;;;;8.07;3.92;;;;;;;;;;4958999;29;20039;-75
2023/09/15 02:35:05;;;;;;;6.70;3.85;;;;;;;;;;4973427;29;20028;-75
2023/09/15 02:37:31;;;;;;;7.55;3.47;;;;;;;;;;4956263;29;20062;-74
2023/09/15 02:40:04;;;;;;;6.18;3.53;;;;;;;;;;4952410;29;20451;-76
2023/09/15 02:42:35;;;;;;;6.47;3.60;;;;;;;;;;4952459;29;20388;-75
2023/09/15 02:45:03;;;;;;;16.38;8.55;;;;;;;;;;4935953;29;20035;-74
2023/09/15 02:47:30;;;;;;;10.13;4.25;;;;;;;;;;4967393;29;20059;-75
2023/09/15 02:49:58;;;;;;;14.05;4.65;;;;;;;;;;4972501;29;20031;-74
2023/09/15 02:52:32;;;;;;;10.93;3.88;;;;;;;;;;4972991;29;20091;-74
2023/09/15 02:55:04;;;;;;;8.25;4.10;;;;;;;;;;4973027;29;20028;-73
2023/09/15 02:57:37;;;;;;;6.82;4.03;;;;;;;;;;4972400;29;20027;-75
2023/09/15 03:00:08;;;;;;;7.72;4.13;;;;;;;;;;4922423;29;20026;-74
2023/09/15 03:02:37;;;;;;;6.53;3.60;;;;;;;;;;4954644;29;20040;-75
2023/09/15 03:05:30;;;;;;;6.97;3.70;;;;;;;;;;4953331;29;20039;-74
2023/09/15 03:08:08;;;;;;;9.07;3.90;;;;;;;;;;4938757;29;20048;-74
2023/09/15 03:11:32;;;;;;;10.20;3.72;;;;;;;;;;4953707;29;20051;-75
2023/09/15 03:14:16;;;;;;;10.90;4.00;;;;;;;;;;4945499;23;20067;-75
2023/09/15 03:17:17;;;;;;;10.93;3.97;;;;;;;;;;4930443;29;20024;-74
2023/09/15 03:20:22;;;;;;;7.95;3.47;;;;;;;;;;4936113;29;20024;-76
2023/09/15 03:23:21;;;;;;;7.45;3.88;;;;;;;;;;4906799;29;20398;-75
2023/09/15 03:26:06;;;;;;;7.80;3.85;;;;;;;;;;4922520;29;20044;-75
2023/09/15 03:28:42;;;;;;;13.70;6.72;;;;;;;;;;4919760;29;20044;-75
2023/09/15 03:31:44;;;;;;;17.65;10.10;;;;;;;;;;4922126;29;20032;-76
2023/09/15 03:34:16;;;;;;;7.53;4.00;;;;;;;;;;4935528;23;20055;-76
2023/09/15 03:36:45;;;;;;;8.57;4.10;;;;;;;;;;4941569;29;20084;-74
2023/09/15 03:39:18;;;;;;;8.70;3.83;;;;;;;;;;4909958;29;20040;-76
2023/09/15 03:41:54;;;;;;;12.25;5.38;;;;;;;;;;4935903;29;20023;-75
2023/09/15 03:44:25;;;;;;;8.48;4.93;;;;;;;;;;4939898;29;20060;-75
2023/09/15 03:46:56;;;;;;;11.30;4.10;;;;;;;;;;4941934;29;20028;-74
2023/09/15 03:49:30;;;;;;;;;;;;;;;;;;4941958;29;20028;-74
2023/09/15 03:52:08;;;;;;;11.27;4.35;;;;;;;;;;4926935;29;19922;-75
2023/09/15 03:54:37;;;;;;;8.10;4.05;;;;;;;;;;4934976;29;20038;-75
2023/09/15 03:57:14;;;;;;;15.07;6.93;;;;;;;;;;4942735;29;20032;-77
2023/09/15 03:59:40;;;;;;;8.00;4.10;;;;;;;;;;4921576;29;20293;-74
2023/09/15 04:02:18;;;;;;;8.50;4.25;;;;;;;;;;4926565;29;20032;-76
2023/09/15 04:04:47;;;;;;;9.25;4.68;;;;;;;;;;4922409;29;20040;-76
2023/09/15 04:07:19;;;;;;;10.07;4.38;;;;;;;;;;4905571;29;20028;-74
2023/09/15 04:09:51;;;;;;;7.05;4.15;;;;;;;;;;4906469;29;20440;-75
2023/09/15 04:12:21;;;;;;;7.07;4.32;;;;;;;;;;4910593;29;20036;-74
2023/09/15 04:14:48;;;;;;;8.32;4.20;;;;;;;;;;4923846;29;20500;-76
2023/09/15 04:17:22;;;;;;;7.47;3.88;;;;;;;;;;4918502;29;20044;-75
2023/09/15 04:19:53;;;;;;;9.13;3.70;;;;;;;;;;4906455;29;20036;-74
2023/09/15 04:22:22;;;;;;;9.38;3.90;;;;;;;;;;4922267;29;20407;-75
2023/09/15 04:24:48;;;;;;;6.97;3.97;;;;;;;;;;4923083;29;20035;-75
2023/09/15 04:27:18;;;;;;;13.00;4.88;;;;;;;;;;4925391;29;20049;-76
2023/09/15 04:29:46;;;;;;;;;;;;;;;;;;4929807;29;20092;-75
2023/09/15 04:32:18;;;;;;;13.63;5.25;;;;;;;;;;4933029;29;19946;-74
2023/09/15 04:34:53;;;;;;;9.13;4.60;;;;;;;;;;4955564;29;20092;-75
2023/09/15 04:37:23;;;;;;;9.23;4.75;;;;;;;;;;4954752;29;20038;-75
2023/09/15 04:39:54;;;;;;;11.75;6.95;;;;;;;;;;4939651;29;20035;-74
2023/09/15 04:42:25;;;;;;;18.17;4.90;;;;;;;;;;4947403;29;20036;-75
2023/09/15 04:44:53;;;;;;;9.93;4.18;;;;;;;;;;4929930;29;20040;-74
2023/09/15 04:47:36;;;;;;;10.05;4.55;;;;;;;;;;4931744;29;20043;-74
2023/09/15 04:50:09;;;;;;;8.25;4.35;;;;;;;;;;4926134;29;20109;-75
2023/09/15 04:52:37;;;;;;;9.73;4.18;;;;;;;;;;4940697;29;20035;-74
2023/09/15 04:55:03;;;;;;;9.18;4.20;;;;;;;;;;4944168;29;20551;-75
2023/09/15 04:57:33;;;;;;;11.68;4.50;;;;;;;;;;4926069;29;20035;-75
2023/09/15 05:00:00;;;;;;;;;;;;;;;;;;4944201;29;20085;-74
2023/09/15 05:02:28;;;;;;;8.10;4.72;;;;;;;;;;4944282;29;19911;-75
2023/09/15 05:04:54;;;;;;;9.77;4.68;;;;;;;;;;4948782;29;20035;-75
2023/09/15 05:07:20;;;;;;;10.52;5.20;;;;;;;;;;4945402;29;20078;-75
2023/09/15 05:09:46;;;;;;;11.57;5.00;;;;;;;;;;4943062;29;20034;-76
2023/09/15 05:12:14;;;;;;;10.18;6.00;;;;;;;;;;4942139;29;20114;-75
2023/09/15 05:14:42;;;;;;;10.65;4.55;;;;;;;;;;4922301;29;20036;-74
2023/09/15 05:17:08;;;;;;;9.32;5.13;;;;;;;;;;4922253;29;20396;-76
2023/09/15 05:19:33;;;;;;;11.43;4.75;;;;;;;;;;4927776;29;20055;-75
2023/09/15 05:21:59;;;;;;;9.07;5.03;;;;;;;;;;4939541;29;20031;-75
2023/09/15 05:24:26;;;;;;;9.55;4.43;;;;;;;;;;4936468;29;20082;-75
2023/09/15 05:26:52;;;;;;;7.78;4.60;;;;;;;;;;4918686;29;20396;-75
2023/09/15 05:29:18;;;;;;;14.00;7.28;;;;;;;;;;4937655;29;20028;-76
2023/09/15 05:31:43;;;;;;;10.88;5.93;;;;;;;;;;4922096;29;20535;-75
2023/09/15 05:34:09;;;;;;;10.52;4.63;;;;;;;;;;4938831;29;20047;-75
2023/09/15 05:36:35;;;;;;;10.25;4.78;;;;;;;;;;4937712;29;20127;-75
2023/09/15 05:39:01;;;;;;;11.45;6.60;;;;;;;;;;4920051;29;20480;-75
2023/09/15 05:41:26;;;;;;;10.05;6.28;;;;;;;;;;4907931;29;20030;-76
2023/09/15 05:43:52;;;;;;;8.55;4.35;;;;;;;;;;4928253;29;20039;-75
2023/09/15 05:46:18;;;;;;;10.40;4.22;;;;;;;;;;4937296;29;20027;-76
2023/09/15 05:48:43;;;;;;;17.27;7.93;;;;;;;;;;4938613;29;20031;-75
2023/09/15 05:51:09;;;;;;;13.52;6.35;;;;;;;;;;4937764;29;20035;-75
2023/09/15 05:53:34;;;;;;;7.60;4.85;;;;;;;;;;4937694;29;20039;-75
2023/09/15 05:56:00;;;;;;;8.05;4.13;;;;;;;;;;4931866;29;20020;-75
2023/09/15 05:58:26;;;;;;;7.80;4.38;;;;;;;;;;4919360;29;20028;-75
2023/09/15 06:00:55;;;;;;;10.07;4.35;;;;;;;;;;4920527;29;20485;-75
2023/09/15 06:03:27;;;;;;;10.52;4.80;;;;;;;;;;4919946;29;20036;-75
2023/09/15 06:05:52;;;;;;;9.57;4.45;;;;;;;;;;4887404;29;20157;-75
2023/09/15 06:08:19;;;;;;;8.50;4.38;;;;;;;;;;4887891;29;20040;-75
2023/09/15 06:10:46;;;;;;;8.52;4.32;;;;;;;;;;4918895;29;20059;-75
2023/09/15 06:13:11;;;;;;;8.95;5.20;;;;;;;;;;4934029;29;20040;-73
2023/09/15 06:15:37;;;;;;;12.30;5.60;;;;;;;;;;4920888;29;20082;-74
2023/09/15 06:18:03;;;;;;;8.50;4.38;;;;;;;;;;4937021;29;20028;-75
2023/09/15 06:20:31;;;;;;;12.05;4.97;;;;;;;;;;4936811;29;20024;-75
2023/09/15 06:23:05;;;;;;;6.45;4.18;;;;;;;;;;4937107;29;20036;-75
2023/09/15 06:25:31;;;;;;;9.82;4.13;;;;;;;;;;4920711;29;20345;-75
2023/09/15 06:27:59;;;;;;;11.43;5.88;;;;;;;;;;4936649;29;20039;-75
2023/09/15 06:30:24;;;;;;;9.48;4.78;;;;;;;;;;4932795;29;20024;-75
2023/09/15 06:32:50;;;;;;;9.25;4.80;;;;;;;;;;4937347;29;20399;-75
2023/09/15 06:35:15;;;;;;;9.63;4.28;;;;;;;;;;4936587;29;20379;-75
2023/09/15 06:37:41;;;;;;;7.80;5.25;;;;;;;;;;4937761;29;20027;-75
2023/09/15 06:40:07;;;;;;;9.90;4.97;;;;;;;;;;4938302;29;20055;-74
2023/09/15 06:42:33;;;;;;;10.77;5.00;;;;;;;;;;4935657;29;20042;-75
2023/09/15 06:44:58;;;;;;;7.55;4.45;;;;;;;;;;4919961;29;20478;-74
2023/09/15 06:47:24;;;;;;;7.97;4.30;;;;;;;;;;4925726;29;20116;-75
2023/09/15 06:49:49;;;;;;;10.52;4.32;;;;;;;;;;4918157;29;20040;-74
2023/09/15 06:52:15;;;;;;;10.57;4.57;;;;;;;;;;4931859;29;20040;-75
2023/09/15 06:54:40;;;;;;;11.80;5.00;;;;;;;;;;4923176;29;20047;-74
2023/09/15 06:57:06;;;;;;;7.80;4.20;;;;;;;;;;4936191;29;20110;-75
2023/09/15 06:59:32;;;;;;;9.05;5.40;;;;;;;;;;4935950;29;20042;-76
2023/09/15 07:01:59;;;;;;;11.95;4.45;;;;;;;;;;4937431;29;20034;-75
2023/09/15 07:04:27;;;;;;;10.60;4.47;;;;;;;;;;4936654;29;20101;-75
2023/09/15 07:06:54;;;;;;;10.05;4.47;;;;;;;;;;4934205;29;20083;-76
2023/09/15 07:09:19;;;;;;;9.43;4.70;;;;;;;;;;4915176;29;20120;-75
2023/09/15 07:11:45;;;;;;;11.07;5.60;;;;;;;;;;4921181;29;20051;-75
2023/09/15 07:14:13;;;;;;;10.35;5.75;;;;;;;;;;4902271;29;20036;-75
2023/09/15 07:16:40;;;;;;;11.52;4.93;;;;;;;;;;4922756;29;20023;-75
2023/09/15 07:19:06;;;;;;;8.95;4.22;;;;;;;;;;4915443;29;20036;-75
2023/09/15 07:21:31;;;;;;;8.70;4.43;;;;;;;;;;4930620;29;20027;-75
2023/09/15 07:23:59;;;;;;;7.40;4.07;;;;;;;;;;4934384;29;20051;-75
2023/09/15 07:26:26;;;;;;;7.20;3.80;;;;;;;;;;4927705;29;20412;-75
2023/09/15 07:28:55;;;;;;;8.43;4.22;;;;;;;;;;4936373;29;20028;-75
2023/09/15 07:31:20;;;;;;;10.90;6.00;;;;;;;;;;4909368;29;20032;-75
2023/09/15 07:33:46;;;;;;;10.18;4.10;;;;;;;;;;4918363;29;20167;-75
2023/09/15 07:36:12;;;;;;;8.30;3.65;;;;;;;;;;4916142;29;20103;-75
2023/09/15 07:38:38;;;;;;;6.85;3.58;;;;;;;;;;4916165;29;20452;-75
2023/09/15 07:41:03;;;;;;;8.32;4.15;;;;;;;;;;4926915;29;20023;-75
2023/09/15 07:43:29;;;;;;;6.53;3.60;;;;;;;;;;4936434;29;20043;-75
2023/09/15 07:45:54;;;;;;;8.05;3.95;;;;;;;;;;4934829;29;20106;-75
2023/09/15 07:48:21;;;;;;;10.55;4.05;;;;;;;;;;4902926;29;20075;-74
2023/09/15 07:50:47;;;;;;;9.88;3.92;;;;;;;;;;4904040;29;20111;-74
2023/09/15 07:53:13;;;;;;;6.47;3.53;;;;;;;;;;4910596;29;20120;-75
2023/09/15 07:55:39;;;;;;;7.43;4.00;;;;;;;;;;4934493;29;20028;-75
2023/09/15 07:58:04;;;;;;;7.10;3.75;;;;;;;;;;4935049;29;20079;-75
2023/09/15 08:00:30;;;;;;;7.75;4.30;;;;;;;;;;4935315;29;20024;-75
2023/09/15 08:02:55;;;;;;;10.25;3.78;;;;;;;;;;4933353;29;20127;-75
2023/09/15 08:05:21;;;;;;;7.43;3.85;;;;;;;;;;4934841;29;20036;-75
2023/09/15 08:07:48;;;;;;;8.23;3.85;;;;;;;;;;4928799;29;20035;-75
2023/09/15 08:10:17;;;;;;;6.63;3.85;;;;;;;;;;4937813;29;20031;-75
2023/09/15 08:12:43;;;;;;;8.25;3.90;;;;;;;;;;4937072;29;20071;-75
2023/09/15 08:15:09;;;;;;;7.68;3.70;;;;;;;;;;4922042;29;20408;-75
2023/09/15 08:17:34;;;;;;;9.30;3.60;;;;;;;;;;4902907;29;20055;-75
2023/09/15 08:20:00;;;;;;;9.57;4.25;;;;;;;;;;4906072;29;20096;-75
2023/09/15 08:22:27;;;;;;;5.72;3.35;;;;;;;;;;4919141;29;20032;-75
2023/09/15 08:24:53;;;;;;;6.72;3.80;;;;;;;;;;4905741;29;20039;-75
2023/09/15 08:27:19;;;;;;;7.38;4.20;;;;;;;;;;4939260;29;20477;-75
2023/09/15 08:29:44;;;;;;;8.98;4.20;;;;;;;;;;4937793;29;20028;-75
2023/09/15 08:32:10;;;;;;;9.32;3.60;;;;;;;;;;4937624;29;20037;-75
2023/09/15 08:34:36;;;;;;;9.40;4.10;;;;;;;;;;4937517;29;20051;-75
2023/09/15 08:37:01;;;;;;;7.93;3.63;;;;;;;;;;4937737;29;20110;-75
2023/09/15 08:39:27;;;;;;;5.57;3.17;;;;;;;;;;4937750;29;20049;-76
2023/09/15 08:42:04;;;;;;;9.43;3.83;;;;;;;;;;4937765;29;20051;-75
2023/09/15 08:44:31;;;;;;;6.15;3.30;;;;;;;;;;4921470;29;20090;-75
2023/09/15 08:46:56;;;;;;;5.90;3.60;;;;;;;;;;4937282;29;20061;-75
2023/09/15 08:49:23;;;;;;;7.88;3.80;;;;;;;;;;4937158;29;20391;-76
2023/09/15 08:51:49;;;;;;;9.18;4.10;;;;;;;;;;4907779;29;20032;-76
2023/09/15 08:54:14;;;;;;;8.23;3.90;;;;;;;;;;4925521;29;20080;-75
2023/09/15 08:56:40;;;;;;;11.10;4.88;;;;;;;;;;4935680;29;20031;-76
2023/09/15 08:59:07;;;;;;;11.05;6.07;;;;;;;;;;4916604;29;20380;-76
2023/09/15 09:01:33;;;;;;;6.85;3.78;;;;;;;;;;4935436;29;20177;-76
2023/09/15 09:03:58;;;;;;;7.25;4.25;;;;;;;;;;4902694;29;20036;-76
2023/09/15 09:06:24;;;;;;;7.35;4.00;;;;;;;;;;4932799;29;20035;-75
2023/09/15 09:08:50;;;;;;;10.52;4.40;;;;;;;;;;4926966;29;20032;-75
2023/09/15 09:11:15;;;;;;;8.50;4.32;;;;;;;;;;4919767;29;20032;-75
2023/09/15 09:13:41;;;;;;;6.90;4.15;;;;;;;;;;4904217;29;20047;-76
2023/09/15 09:16:10;;;;;;;7.38;3.97;;;;;;;;;;4921239;29;20110;-76
2023/09/15 09:18:36;;;;;;;6.43;3.30;;;;;;;;;;4919380;29;20425;-75
2023/09/15 09:21:05;;;;;;;6.47;3.58;;;;;;;;;;4932688;29;20086;-76
2023/09/15 09:23:30;;;;;;;6.15;3.80;;;;;;;;;;4939031;29;20112;-75
2023/09/15 09:26:00;;;;;;;6.82;3.58;;;;;;;;;;4942283;29;20104;-76
2023/09/15 09:28:28;;;;;;;11.68;4.13;;;;;;;;;;4927929;29;20036;-76
2023/09/15 09:30:55;;;;;;;8.88;3.67;;;;;;;;;;4947870;29;20040;-76
2023/09/15 09:33:23;;;;;;;7.90;3.63;;;;;;;;;;4921320;29;20061;-76
2023/09/15 09:35:49;;;;;;;6.75;3.55;;;;;;;;;;4919449;29;20062;-76
2023/09/15 09:38:15;;;;;;;5.95;3.38;;;;;;;;;;4937214;29;20471;-76
2023/09/15 09:40:52;;;;;;;7.20;3.58;;;;;;;;;;4937014;29;20035;-76
2023/09/15 09:43:20;;;;;;;7.68;3.70;;;;;;;;;;4937118;29;20039;-77
2023/09/15 09:45:49;;;;;;;10.52;3.60;;;;;;;;;;4936843;29;20034;-76
2023/09/15 09:48:14;;;;;;;8.18;3.78;;;;;;;;;;4922302;29;20036;-76
2023/09/15 09:50:40;;;;;;;6.40;3.10;;;;;;;;;;4939327;29;20030;-76
2023/09/15 09:53:09;;;;;;;7.05;3.72;;;;;;;;;;4934775;29;20059;-77
2023/09/15 09:55:34;;;;;;;8.55;4.20;;;;;;;;;;4935570;29;20047;-76
2023/09/15 09:58:05;;;;;;;9.43;4.45;;;;;;;;;;4905300;29;20432;-77
2023/09/15 10:00:32;;;;;;;8.05;3.50;;;;;;;;;;4917743;29;20466;-76
2023/09/15 10:02:59;;;;;;;12.55;3.65;;;;;;;;;;4918511;29;20047;-76
2023/09/15 10:05:25;;;;;;;6.05;3.20;;;;;;;;;;4918292;29;20041;-77
2023/09/15 10:07:51;;;;;;;8.07;3.85;;;;;;;;;;4901884;29;20040;-76
2023/09/15 10:10:17;;;;;;;6.25;3.53;;;;;;;;;;4916788;29;20099;-76
2023/09/15 10:13:08;;;;;;;5.75;3.42;;;;;;;;;;4900778;29;20488;-80
2023/09/15 10:15:42;;;;;;;5.50;2.95;;;;;;;;;;4919439;29;20035;-76
2023/09/15 10:18:09;;;;;;;6.68;3.67;;;;;;;;;;4917146;29;20036;-76
2023/09/15 10:20:36;;;;;;;6.72;3.25;;;;;;;;;;4917395;29;20080;-76
2023/09/15 10:23:04;;;;;;;6.78;3.22;;;;;;;;;;4917023;29;20118;-77
2023/09/15 10:25:38;;;;;;;5.57;3.30;;;;;;;;;;4900852;29;20036;-77
2023/09/15 10:28:04;;;;;;;8.18;3.30;;;;;;;;;;4885941;29;20036;-77
2023/09/15 10:30:34;;;;;;;7.05;3.08;;;;;;;;;;4915520;29;20040;-76
2023/09/15 10:33:00;;;;;;;5.75;3.25;;;;;;;;;;4917537;29;20052;-77
2023/09/15 10:35:26;;;;;;;8.07;3.50;;;;;;;;;;4917036;29;20614;-76
2023/09/15 10:37:55;;;;;;;9.63;2.65;;;;;;;;;;4901123;29;20072;-78
2023/09/15 10:40:20;;;;;;;6.00;2.85;;;;;;;;;;4901575;29;20167;-77
2023/09/15 10:42:47;;;;;;;4.78;2.60;;;;;;;;;;4885373;29;20119;-77
2023/09/15 10:45:13;;;;;;;4.60;2.30;;;;;;;;;;4900743;29;20042;-77
2023/09/15 10:47:39;;;;;;;6.70;2.50;;;;;;;;;;4916568;29;20028;-76
2023/09/15 10:50:31;;;;;;;6.55;3.10;;;;;;;;;;5070243;28;20391;-77
2023/09/15 10:53:05;;;;;;;6.43;3.28;;;;;;;;;;5068730;28;20116;-78
2023/09/15 10:55:31;;;;;;;5.70;2.80;;;;;;;;;;5068736;28;20054;-77
2023/09/15 10:57:57;;;;;;;4.55;2.33;;;;;;;;;;5068462;28;20047;-77
2023/09/15 11:00:25;;;;;;;4.85;2.92;;;;;;;;;;5068795;28;20051;-77
2023/09/15 11:02:52;;;;;;;5.50;2.70;;;;;;;;;;5068264;28;20422;-77
2023/09/15 11:05:17;;;;;;;6.57;2.80;;;;;;;;;;5056820;28;20067;-77
2023/09/15 11:07:43;;;;;;;9.10;3.92;;;;;;;;;;5048940;28;20034;-77
2023/09/15 11:10:09;;;;;;;4.75;2.60;;;;;;;;;;5048707;28;20404;-77
2023/09/15 11:12:37;;;;;;;7.53;3.58;;;;;;;;;;5032086;28;20029;-76
2023/09/15 11:15:03;;;;;;;6.00;2.83;;;;;;;;;;5031295;28;20028;-77
2023/09/15 11:17:29;;;;;;;5.88;2.63;;;;;;;;;;5032581;28;20037;-77
2023/09/15 11:19:55;;;;;;;5.65;2.67;;;;;;;;;;5032825;28;20124;-77
2023/09/15 11:22:21;;;;;;;4.80;2.78;;;;;;;;;;5050240;28;20451;-77
2023/09/15 11:24:47;;;;;;;9.15;3.53;;;;;;;;;;5031661;28;20180;-77
2023/09/15 11:27:14;;;;;;;10.27;4.53;;;;;;;;;;5031622;28;20044;-78
2023/09/15 11:29:41;;;;;;;11.87;3.90;;;;;;;;;;5049553;28;20044;-77
2023/09/15 11:32:06;;;;;;;4.90;2.53;;;;;;;;;;5048161;28;20044;-78
2023/09/15 11:34:32;;;;;;;6.32;3.20;;;;;;;;;;5048609;28;20414;-77
2023/09/15 11:36:59;;;;;;;7.43;3.05;;;;;;;;;;5031788;28;20052;-78
2023/09/15 11:39:25;;;;;;;6.57;2.37;;;;;;;;;;5032467;28;20045;-78
2023/09/15 11:41:53;;;;;;;5.03;2.35;;;;;;;;;;5049101;28;20446;-78
2023/09/15 11:44:20;;;;;;;4.25;2.67;;;;;;;;;;5046694;28;20043;-78
2023/09/15 11:46:48;;;;;;;3.83;2.17;;;;;;;;;;5047610;28;20052;-78
2023/09/15 11:49:15;;;;;;;5.87;2.70;;;;;;;;;;5048542;28;20636;-77
2023/09/15 11:51:40;;;;;;;4.38;1.80;;;;;;;;;;5034761;28;20033;-78
2023/09/15 11:54:06;;;;;;;5.30;2.40;;;;;;;;;;5055123;28;20057;-78
2023/09/15 11:56:32;;;;;;;4.75;2.05;;;;;;;;;;5040111;28;20029;-78
2023/09/15 11:58:59;;;;;;;4.65;2.08;;;;;;;;;;5056994;28;20059;-77
2023/09/15 12:01:24;;;;;;;6.15;2.67;;;;;;;;;;5026946;28;20033;-78
2023/09/15 12:03:51;;;;;;;4.60;2.00;;;;;;;;;;5040292;28;20079;-78
2023/09/15 12:06:18;;;;;;;5.40;2.28;;;;;;;;;;5037576;28;20036;-78
2023/09/15 12:08:48;;;;;;;5.35;2.10;;;;;;;;;;5035432;28;20042;-77
2023/09/15 12:11:14;;;;;;;4.00;2.03;;;;;;;;;;5034886;28;20026;-77
2023/09/15 12:13:40;;;;;;;5.35;2.53;;;;;;;;;;5002100;28;20586;-78
2023/09/15 12:16:06;;;;;;;4.85;2.25;;;;;;;;;;5034165;28;20026;-77
2023/09/15 12:18:37;;;;;;;5.55;2.60;;;;;;;;;;5018817;28;20392;-78
2023/09/15 12:21:10;;;;;;;5.57;2.67;;;;;;;;;;5035083;28;20570;-78
2023/09/15 12:23:35;;;;;;;5.32;2.20;;;;;;;;;;5037312;28;20029;-78
2023/09/15 12:26:01;;;;;;;5.47;2.30;;;;;;;;;;5032704;28;20032;-78
2023/09/15 12:28:27;;;;;;;7.13;2.35;;;;;;;;;;5056549;28;20029;-77
2023/09/15 12:30:53;;;;;;;5.22;2.33;;;;;;;;;;5056967;28;20028;-78
2023/09/15 12:33:19;;;;;;;4.35;2.30;;;;;;;;;;5054410;28;20047;-78
2023/09/15 12:35:51;;;;;;;5.80;2.25;;;;;;;;;;5056539;28;20044;-78
2023/09/15 12:38:17;;;;;;;4.78;1.92;;;;;;;;;;5058678;28;20029;-77
2023/09/15 12:40:47;;;;;;;3.97;1.90;;;;;;;;;;5062826;28;20543;-79
2023/09/15 12:43:13;;;;;;;9.32;2.15;;;;;;;;;;5060659;28;20021;-77
2023/09/15 12:45:39;;;;;;;4.30;2.13;;;;;;;;;;5055269;28;20142;-78
2023/09/15 12:48:04;;;;;;;6.15;1.90;;;;;;;;;;5061718;28;20147;-76
2023/09/15 12:50:31;;;;;;;6.57;4.60;;;;;;;;;;5058840;28;20029;-79
2023/09/15 12:52:57;;;;;;;6.70;2.30;;;;;;;;;;5054768;28;20036;-78
2023/09/15 12:55:22;;;;;;;7.20;2.58;;;;;;;;;;5053802;28;20388;-78
2023/09/15 12:57:48;;;;;;;213.93;143.73;;;;;;;;;;5040423;28;20061;-81
2023/09/15 13:00:14;;;;;;;302.75;272.48;;;;;;;;;;5029407;28;20025;-78
2023/09/15 13:02:39;;;;;;;19.08;12.60;;;;;;;;;;5037442;28;20491;-78
2023/09/15 13:05:06;;;;;;;10.70;6.15;;;;;;;;;;5034622;28;20022;-78
2023/09/15 13:07:36;;;;;;;26.73;16.02;;;;;;;;;;5021370;28;20053;-79
2023/09/15 13:10:02;;;;;;;17.40;9.38;;;;;;;;;;5018805;28;20029;-78
2023/09/15 13:12:28;;;;;;;12.32;7.43;;;;;;;;;;5017455;28;20029;-77
2023/09/15 13:14:53;;;;;;;13.02;7.60;;;;;;;;;;5000906;28;20041;-78
2023/09/15 13:17:19;;;;;;;20.95;14.15;;;;;;;;;;5025363;28;20040;-79
2023/09/15 13:19:45;;;;;;;16.73;9.15;;;;;;;;;;5037014;28;20105;-77
2023/09/15 13:22:10;;;;;;;14.45;9.68;;;;;;;;;;5037812;28;20036;-77
2023/09/15 13:24:36;;;;;;;7.00;3.90;;;;;;;;;;5020591;28;20051;-77
2023/09/15 13:27:02;;;;;;;11.20;6.93;;;;;;;;;;5019719;28;20401;-78
2023/09/15 13:29:28;;;;;;;9.35;4.07;;;;;;;;;;5036595;28;20041;-77
2023/09/15 13:31:53;;;;;;;14.15;6.00;;;;;;;;;;5019249;28;20183;-77
2023/09/15 13:34:20;;;;;;;18.52;10.68;;;;;;;;;;5034796;28;20033;-77
2023/09/15 13:36:48;;;;;;;17.60;10.88;;;;;;;;;;5027442;28;20033;-77
2023/09/15 13:39:13;;;;;;;13.02;7.13;;;;;;;;;;5061275;28;20024;-77
2023/09/15 13:41:39;;;;;;;7.65;3.17;;;;;;;;;;5035202;28;20029;-78
2023/09/15 13:44:05;;;;;;;4.00;2.30;;;;;;;;;;5034941;28;20369;-77
2023/09/15 13:46:36;;;;;;;4.28;2.25;;;;;;;;;;5017720;28;20056;-77
2023/09/15 13:49:02;;;;;;;7.63;3.05;;;;;;;;;;5033678;28;20400;-78
2023/09/15 13:51:28;;;;;;;5.10;1.95;;;;;;;;;;5016478;28;20033;-78
2023/09/15 13:53:53;;;;;;;4.72;2.92;;;;;;;;;;5034198;28;20391;-77
2023/09/15 13:56:19;;;;;;;6.03;2.95;;;;;;;;;;5025007;28;20092;-76
2023/09/15 13:58:44;;;;;;;4.13;2.13;;;;;;;;;;5044486;28;20096;-76
2023/09/15 14:01:10;;;;;;;24.92;17.00;;;;;;;;;;5050602;28;20099;-80
2023/09/15 14:03:36;;;;;;;56.13;45.42;;;;;;;;;;5080753;28;20486;-80
2023/09/15 14:06:02;;;;;;;20.05;12.60;;;;;;;;;;5050821;28;20035;-77
2023/09/15 14:08:28;;;;;;;16.95;13.40;;;;;;;;;;5061291;28;20116;-77
2023/09/15 14:10:54;;;;;;;14.52;11.75;;;;;;;;;;5057295;28;20067;-77
2023/09/15 14:13:22;;;;;;;17.42;13.60;;;;;;;;;;5044307;28;20019;-77
2023/09/15 14:15:48;;;;;;;16.70;12.13;;;;;;;;;;5057288;28;20104;-78
2023/09/15 14:18:16;;;;;;;10.65;7.00;;;;;;;;;;5057144;28;20038;-78
2023/09/15 14:20:41;;;;;;;13.48;10.20;;;;;;;;;;5069994;28;20035;-78
2023/09/15 14:23:07;;;;;;;9.07;6.72;;;;;;;;;;5063519;28;20056;-78
2023/09/15 14:25:33;;;;;;;9.15;7.15;;;;;;;;;;5076968;28;20227;-77
2023/09/15 14:27:58;;;;;;;14.02;9.95;;;;;;;;;;5075643;28;20025;-79
2023/09/15 14:30:24;;;;;;;9.68;8.10;;;;;;;;;;5072736;28;20479;-78
2023/09/15 14:32:49;;;;;;;8.82;6.68;;;;;;;;;;5071197;28;20086;-78
2023/09/15 14:35:17;;;;;;;7.00;5.03;;;;;;;;;;5072358;28;20024;-78
2023/09/15 14:37:43;;;;;;;5.10;3.47;;;;;;;;;;5066912;28;20070;-78
2023/09/15 14:40:09;;;;;;;5.55;3.08;;;;;;;;;;5064854;28;20059;-78
2023/09/15 14:42:34;;;;;;;11.82;6.90;;;;;;;;;;5042119;28;20021;-77
2023/09/15 14:45:01;;;;;;;7.43;4.45;;;;;;;;;;5069575;28;20047;-77
2023/09/15 14:47:26;;;;;;;7.25;3.88;;;;;;;;;;5058560;28;20329;-78
2023/09/15 14:49:52;;;;;;;7.60;5.20;;;;;;;;;;5064624;28;20044;-78
2023/09/15 14:52:17;;;;;;;102.40;75.97;;;;;;;;;;5053706;28;20046;-79
2023/09/15 14:54:43;;;;;;;10.52;8.23;;;;;;;;;;5007126;28;20033;-77
2023/09/15 14:57:12;;;;;;;8.85;4.60;;;;;;;;;;5063853;28;20040;-77